sensor_id;sensor_type;location;lat;lon;timestamp;pressure;altitude;pressure_sealevel;temperature;humidity
25610;BME280;13479;49.044;8.716;2023-09-19T04:02:06;98727.72;;;18.01;81.99
25610;BME280;13479;49.044;8.716;2023-09-19T04:04:36;98740.25;;;17.79;82.93
25610;BME280;13479;49.044;8.716;2023-09-19T04:07:02;98761.06;;;17.77;83.90
25610;BME280;13479;49.044;8.716;2023-09-19T04:09:27;98777.81;;;17.64;85.17
25610;BME280;13479;49.044;8.716;2023-09-19T04:11:53;98791.63;;;17.76;85.14
25610;BME280;13479;49.044;8.716;2023-09-19T04:14:18;98788.84;;;17.84;84.76
25610;BME280;13479;49.044;8.716;2023-09-19T04:16:43;98798.19;;;17.88;84.71
25610;BME280;13479;49.044;8.716;2023-09-19T04:19:08;98787.91;;;17.92;85.06
25610;BME280;13479;49.044;8.716;2023-09-19T04:21:34;98801.63;;;18.12;84.34
25610;BME280;13479;49.044;8.716;2023-09-19T04:23:59;98815.84;;;18.06;84.16
25610;BME280;13479;49.044;8.716;2023-09-19T04:26:24;98818.78;;;18.11;84.39
25610;BME280;13479;49.044;8.716;2023-09-19T04:28:51;98813.84;;;18.15;84.39
25610;BME280;13479;49.044;8.716;2023-09-19T04:31:16;98816.09;;;18.11;84.36
25610;BME280;13479;49.044;8.716;2023-09-19T04:33:43;98828.56;;;18.34;83.60
25610;BME280;13479;49.044;8.716;2023-09-19T04:36:08;98822.13;;;18.13;83.78
25610;BME280;13479;49.044;8.716;2023-09-19T04:38:35;98810.22;;;18.37;84.58
25610;BME280;13479;49.044;8.716;2023-09-19T04:41:00;98803.50;;;18.63;84.94
25610;BME280;13479;49.044;8.716;2023-09-19T04:43:25;98835.94;;;18.62;84.29
25610;BME280;13479;49.044;8.716;2023-09-19T04:45:51;98853.81;;;18.70;83.56
25610;BME280;13479;49.044;8.716;2023-09-19T04:48:20;98838.16;;;18.58;84.02
25610;BME280;13479;49.044;8.716;2023-09-19T04:50:48;98821.84;;;18.60;84.33
25610;BME280;13479;49.044;8.716;2023-09-19T04:53:13;98835.56;;;18.65;84.25
25610;BME280;13479;49.044;8.716;2023-09-19T04:55:38;98842.50;;;18.59;84.17
25610;BME280;13479;49.044;8.716;2023-09-19T04:58:04;98822.59;;;18.53;84.65
25610;BME280;13479;49.044;8.716;2023-09-19T05:00:29;98820.75;;;18.54;85.02
25610;BME280;13479;49.044;8.716;2023-09-19T05:02:56;98860.94;;;18.77;82.94
25610;BME280;13479;49.044;8.716;2023-09-19T05:05:22;98847.59;;;18.69;83.31
25610;BME280;13479;49.044;8.716;2023-09-19T05:07:49;98831.47;;;18.69;84.02
25610;BME280;13479;49.044;8.716;2023-09-19T05:10:14;98835.19;;;18.68;83.80
25610;BME280;13479;49.044;8.716;2023-09-19T05:12:41;98850.34;;;18.54;83.84
25610;BME280;13479;49.044;8.716;2023-09-19T05:15:07;98858.66;;;18.59;83.32
25610;BME280;13479;49.044;8.716;2023-09-19T05:17:33;98867.81;;;18.65;83.32
25610;BME280;13479;49.044;8.716;2023-09-19T05:19:59;98854.13;;;18.60;83.58
25610;BME280;13479;49.044;8.716;2023-09-19T05:22:31;98852.44;;;18.59;83.81
25610;BME280;13479;49.044;8.716;2023-09-19T05:24:57;98846.16;;;18.51;84.30
25610;BME280;13479;49.044;8.716;2023-09-19T05:27:23;98841.34;;;18.47;84.84
25610;BME280;13479;49.044;8.716;2023-09-19T05:29:49;98843.09;;;18.55;84.64
25610;BME280;13479;49.044;8.716;2023-09-19T05:32:15;98870.78;;;18.70;83.75
25610;BME280;13479;49.044;8.716;2023-09-19T05:34:41;98892.88;;;18.65;82.72
25610;BME280;13479;49.044;8.716;2023-09-19T05:37:06;98895.09;;;18.62;82.24
25610;BME280;13479;49.044;8.716;2023-09-19T05:39:32;98884.16;;;18.48;82.30
25610;BME280;13479;49.044;8.716;2023-09-19T05:41:57;98892.88;;;18.50;81.96
25610;BME280;13479;49.044;8.716;2023-09-19T05:44:23;98887.88;;;18.47;82.21
25610;BME280;13479;49.044;8.716;2023-09-19T05:46:48;98898.88;;;18.52;81.16
25610;BME280;13479;49.044;8.716;2023-09-19T05:49:13;98901.50;;;18.61;80.66
25610;BME280;13479;49.044;8.716;2023-09-19T05:51:39;98890.00;;;18.52;80.47
25610;BME280;13479;49.044;8.716;2023-09-19T05:54:04;98894.16;;;18.55;80.71
25610;BME280;13479;49.044;8.716;2023-09-19T05:56:30;98906.00;;;18.75;79.85
25610;BME280;13479;49.044;8.716;2023-09-19T05:58:56;98908.97;;;18.80;79.51
25610;BME280;13479;49.044;8.716;2023-09-19T06:01:21;98900.44;;;18.77;78.72
25610;BME280;13479;49.044;8.716;2023-09-19T06:03:47;98886.63;;;18.80;78.88
25610;BME280;13479;49.044;8.716;2023-09-19T06:06:12;98893.34;;;18.91;78.71
25610;BME280;13479;49.044;8.716;2023-09-19T06:08:38;98899.22;;;18.94;77.80
25610;BME280;13479;49.044;8.716;2023-09-19T06:11:03;98904.13;;;19.27;76.34
25610;BME280;13479;49.044;8.716;2023-09-19T06:13:32;98892.59;;;19.34;76.12
25610;BME280;13479;49.044;8.716;2023-09-19T06:15:58;98906.88;;;19.56;75.42
25610;BME280;13479;49.044;8.716;2023-09-19T06:18:25;98890.28;;;19.52;74.84
25610;BME280;13479;49.044;8.716;2023-09-19T06:20:51;98897.09;;;19.76;73.36
25610;BME280;13479;49.044;8.716;2023-09-19T06:23:17;98866.84;;;19.74;74.05
25610;BME280;13479;49.044;8.716;2023-09-19T06:25:42;98886.38;;;20.12;72.44
25610;BME280;13479;49.044;8.716;2023-09-19T06:28:08;98872.94;;;20.18;70.91
25610;BME280;13479;49.044;8.716;2023-09-19T06:30:37;98865.28;;;20.22;69.98
25610;BME280;13479;49.044;8.716;2023-09-19T06:33:05;98865.13;;;20.24;69.05
25610;BME280;13479;49.044;8.716;2023-09-19T06:35:33;98868.06;;;20.35;68.81
25610;BME280;13479;49.044;8.716;2023-09-19T06:37:58;98868.03;;;20.29;68.43
25610;BME280;13479;49.044;8.716;2023-09-19T06:40:23;98860.63;;;20.37;68.49
25610;BME280;13479;49.044;8.716;2023-09-19T06:42:52;98863.13;;;20.46;68.18
25610;BME280;13479;49.044;8.716;2023-09-19T06:45:19;98882.03;;;20.52;66.72
25610;BME280;13479;49.044;8.716;2023-09-19T06:47:45;98881.06;;;20.67;65.62
25610;BME280;13479;49.044;8.716;2023-09-19T06:50:11;98866.53;;;20.61;65.41
25610;BME280;13479;49.044;8.716;2023-09-19T06:52:40;98886.88;;;20.64;64.91
25610;BME280;13479;49.044;8.716;2023-09-19T06:55:06;98873.34;;;20.57;64.89
25610;BME280;13479;49.044;8.716;2023-09-19T06:57:32;98875.91;;;20.65;64.35
25610;BME280;13479;49.044;8.716;2023-09-19T06:59:57;98871.53;;;20.64;64.78
25610;BME280;13479;49.044;8.716;2023-09-19T07:02:22;98899.69;;;21.04;63.20
25610;BME280;13479;49.044;8.716;2023-09-19T07:04:48;98907.03;;;21.43;62.40
25610;BME280;13479;49.044;8.716;2023-09-19T07:07:14;98912.91;;;21.94;61.04
25610;BME280;13479;49.044;8.716;2023-09-19T07:09:40;98914.09;;;22.32;59.05
25610;BME280;13479;49.044;8.716;2023-09-19T07:12:05;98903.66;;;22.49;57.92
25610;BME280;13479;49.044;8.716;2023-09-19T07:14:30;98910.88;;;22.68;56.98
25610;BME280;13479;49.044;8.716;2023-09-19T07:16:56;98915.63;;;22.80;56.55
25610;BME280;13479;49.044;8.716;2023-09-19T07:19:21;98912.16;;;23.05;56.40
25610;BME280;13479;49.044;8.716;2023-09-19T07:21:46;98926.34;;;23.46;54.91
25610;BME280;13479;49.044;8.716;2023-09-19T07:24:12;98920.03;;;23.52;54.83
25610;BME280;13479;49.044;8.716;2023-09-19T07:26:38;98935.44;;;23.83;53.62
25610;BME280;13479;49.044;8.716;2023-09-19T07:29:05;98944.50;;;24.21;51.90
25610;BME280;13479;49.044;8.716;2023-09-19T07:31:32;98947.34;;;24.08;52.44
25610;BME280;13479;49.044;8.716;2023-09-19T07:33:57;98940.31;;;24.44;51.70
25610;BME280;13479;49.044;8.716;2023-09-19T07:36:22;98954.22;;;25.40;49.22
25610;BME280;13479;49.044;8.716;2023-09-19T07:38:49;98970.00;;;26.40;47.34
25610;BME280;13479;49.044;8.716;2023-09-19T07:41:14;98987.88;;;27.41;45.56
25610;BME280;13479;49.044;8.716;2023-09-19T07:43:39;99002.50;;;28.49;42.93
25610;BME280;13479;49.044;8.716;2023-09-19T07:46:08;99011.69;;;29.44;40.59
25610;BME280;13479;49.044;8.716;2023-09-19T07:48:37;99022.09;;;29.47;39.68
25610;BME280;13479;49.044;8.716;2023-09-19T07:51:05;99030.34;;;29.80;39.24
25610;BME280;13479;49.044;8.716;2023-09-19T07:53:31;99029.94;;;30.26;37.11
25610;BME280;13479;49.044;8.716;2023-09-19T07:56:06;99042.78;;;30.58;36.96
25610;BME280;13479;49.044;8.716;2023-09-19T07:58:33;99041.25;;;31.31;35.90
25610;BME280;13479;49.044;8.716;2023-09-19T08:01:03;99043.59;;;31.75;35.01
25610;BME280;13479;49.044;8.716;2023-09-19T08:03:29;99061.19;;;31.95;33.59
25610;BME280;13479;49.044;8.716;2023-09-19T08:05:56;99065.56;;;32.01;33.17
25610;BME280;13479;49.044;8.716;2023-09-19T08:08:22;99058.41;;;32.00;33.97
25610;BME280;13479;49.044;8.716;2023-09-19T08:10:52;99074.38;;;32.08;32.54
25610;BME280;13479;49.044;8.716;2023-09-19T08:13:18;99084.53;;;32.02;32.34
25610;BME280;13479;49.044;8.716;2023-09-19T08:15:43;99074.84;;;31.69;32.92
25610;BME280;13479;49.044;8.716;2023-09-19T08:18:09;99083.78;;;31.33;33.50
25610;BME280;13479;49.044;8.716;2023-09-19T08:20:37;99074.72;;;30.85;33.86
25610;BME280;13479;49.044;8.716;2023-09-19T08:23:03;99074.03;;;30.62;33.89
25610;BME280;13479;49.044;8.716;2023-09-19T08:25:29;99072.97;;;30.63;33.73
25610;BME280;13479;49.044;8.716;2023-09-19T08:27:55;99077.06;;;30.60;34.05
25610;BME280;13479;49.044;8.716;2023-09-19T08:30:25;99058.28;;;30.85;34.13
25610;BME280;13479;49.044;8.716;2023-09-19T08:32:58;99068.94;;;31.24;33.27
25610;BME280;13479;49.044;8.716;2023-09-19T08:35:24;99077.91;;;31.88;32.17
25610;BME280;13479;49.044;8.716;2023-09-19T08:37:49;99074.66;;;32.38;31.92
25610;BME280;13479;49.044;8.716;2023-09-19T08:40:16;99094.88;;;33.14;30.65
25610;BME280;13479;49.044;8.716;2023-09-19T08:42:53;99102.94;;;33.66;29.93
25610;BME280;13479;49.044;8.716;2023-09-19T08:45:20;99099.06;;;34.12;28.12
25610;BME280;13479;49.044;8.716;2023-09-19T08:47:53;99107.88;;;33.69;29.59
25610;BME280;13479;49.044;8.716;2023-09-19T08:50:26;99114.13;;;33.80;29.62
25610;BME280;13479;49.044;8.716;2023-09-19T08:52:55;99114.78;;;32.80;29.51
25610;BME280;13479;49.044;8.716;2023-09-19T08:55:23;99111.38;;;31.85;30.46
25610;BME280;13479;49.044;8.716;2023-09-19T08:57:52;99094.31;;;30.61;31.41
25610;BME280;13479;49.044;8.716;2023-09-19T09:00:24;99074.13;;;29.52;32.87
25610;BME280;13479;49.044;8.716;2023-09-19T09:02:54;99051.31;;;28.80;34.00
25610;BME280;13479;49.044;8.716;2023-09-19T09:05:20;99038.53;;;28.29;35.58
25610;BME280;13479;49.044;8.716;2023-09-19T09:07:49;99024.72;;;27.73;36.39
25610;BME280;13479;49.044;8.716;2023-09-19T09:10:17;99013.28;;;27.30;37.27
25610;BME280;13479;49.044;8.716;2023-09-19T09:12:42;99014.94;;;26.66;38.50
25610;BME280;13479;49.044;8.716;2023-09-19T09:15:09;98999.06;;;26.16;39.50
25610;BME280;13479;49.044;8.716;2023-09-19T09:17:37;98996.72;;;26.55;39.47
25610;BME280;13479;49.044;8.716;2023-09-19T09:20:02;98991.03;;;26.57;39.85
25610;BME280;13479;49.044;8.716;2023-09-19T09:22:29;98981.78;;;26.58;39.63
25610;BME280;13479;49.044;8.716;2023-09-19T09:24:57;98972.47;;;27.64;38.55
25610;BME280;13479;49.044;8.716;2023-09-19T09:27:30;99008.03;;;28.94;35.90
25610;BME280;13479;49.044;8.716;2023-09-19T09:29:56;99033.50;;;30.26;34.46
25610;BME280;13479;49.044;8.716;2023-09-19T09:32:27;99048.59;;;31.15;32.76
25610;BME280;13479;49.044;8.716;2023-09-19T09:34:58;99064.16;;;31.83;31.14
25610;BME280;13479;49.044;8.716;2023-09-19T09:37:24;99079.31;;;32.47;31.13
25610;BME280;13479;49.044;8.716;2023-09-19T09:39:56;99089.13;;;33.00;30.55
25610;BME280;13479;49.044;8.716;2023-09-19T09:42:31;99095.28;;;33.52;29.26
25610;BME280;13479;49.044;8.716;2023-09-19T09:47:46;99102.94;;;32.69;28.29
25610;BME280;13479;49.044;8.716;2023-09-19T09:50:31;99095.28;;;32.30;28.29
25610;BME280;13479;49.044;8.716;2023-09-19T09:53:29;99092.19;;;31.80;28.60
25610;BME280;13479;49.044;8.716;2023-09-19T09:56:04;99092.22;;;32.26;28.13
25610;BME280;13479;49.044;8.716;2023-09-19T09:58:36;99112.00;;;32.90;27.97
25610;BME280;13479;49.044;8.716;2023-09-19T10:01:02;99104.53;;;33.01;26.92
25610;BME280;13479;49.044;8.716;2023-09-19T10:03:36;99113.66;;;32.91;26.77
25610;BME280;13479;49.044;8.716;2023-09-19T10:06:08;99112.00;;;32.64;27.47
25610;BME280;13479;49.044;8.716;2023-09-19T10:09:06;99103.75;;;32.49;27.85
25610;BME280;13479;49.044;8.716;2023-09-19T10:11:35;99102.28;;;31.69;28.82
25610;BME280;13479;49.044;8.716;2023-09-19T10:14:05;99079.22;;;31.06;29.24
25610;BME280;13479;49.044;8.716;2023-09-19T10:16:32;99075.78;;;30.08;30.64
25610;BME280;13479;49.044;8.716;2023-09-19T10:19:01;99058.50;;;29.75;31.52
25610;BME280;13479;49.044;8.716;2023-09-19T10:21:28;99037.69;;;29.47;31.81
25610;BME280;13479;49.044;8.716;2023-09-19T10:23:58;99038.03;;;29.11;32.93
25610;BME280;13479;49.044;8.716;2023-09-19T10:26:26;99029.09;;;28.93;32.80
25610;BME280;13479;49.044;8.716;2023-09-19T10:28:54;99015.88;;;28.85;33.18
25610;BME280;13479;49.044;8.716;2023-09-19T10:31:21;99006.59;;;28.86;34.37
25610;BME280;13479;49.044;8.716;2023-09-19T10:33:49;98997.75;;;29.46;32.88
25610;BME280;13479;49.044;8.716;2023-09-19T10:36:16;99004.41;;;30.15;31.62
25610;BME280;13479;49.044;8.716;2023-09-19T10:38:43;99011.75;;;30.95;31.29
25610;BME280;13479;49.044;8.716;2023-09-19T10:41:14;99042.41;;;31.55;29.86
25610;BME280;13479;49.044;8.716;2023-09-19T10:43:42;99034.97;;;31.40;28.92
25610;BME280;13479;49.044;8.716;2023-09-19T10:46:10;99074.28;;;31.03;28.49
25610;BME280;13479;49.044;8.716;2023-09-19T10:48:37;99080.66;;;30.71;29.46
25610;BME280;13479;49.044;8.716;2023-09-19T10:51:15;99077.00;;;31.03;28.60
25610;BME280;13479;49.044;8.716;2023-09-19T10:56:23;99082.44;;;30.88;28.63
25610;BME280;13479;49.044;8.716;2023-09-19T10:58:48;99063.81;;;30.90;29.26
25610;BME280;13479;49.044;8.716;2023-09-19T11:01:14;99082.50;;;30.98;28.66
25610;BME280;13479;49.044;8.716;2023-09-19T11:03:40;99079.09;;;30.80;28.86
25610;BME280;13479;49.044;8.716;2023-09-19T11:06:14;99080.09;;;30.69;28.92
25610;BME280;13479;49.044;8.716;2023-09-19T11:09:01;99065.06;;;30.34;29.60
25610;BME280;13479;49.044;8.716;2023-09-19T11:11:51;99048.03;;;29.94;30.69
25610;BME280;13479;49.044;8.716;2023-09-19T11:30:48;98964.78;;;26.50;35.33
25610;BME280;13479;49.044;8.716;2023-09-19T11:33:32;98961.81;;;26.40;35.39
25610;BME280;13479;49.044;8.716;2023-09-19T11:36:10;98947.56;;;25.90;36.31
25610;BME280;13479;49.044;8.716;2023-09-19T11:46:20;98919.38;;;25.49;38.07
25610;BME280;13479;49.044;8.716;2023-09-19T11:48:49;98932.38;;;25.28;37.30
25610;BME280;13479;49.044;8.716;2023-09-19T11:51:22;98909.97;;;25.33;37.80
25610;BME280;13479;49.044;8.716;2023-09-19T11:53:56;98907.03;;;25.35;38.53
25610;BME280;13479;49.044;8.716;2023-09-19T11:56:23;98912.19;;;25.55;38.03
25610;BME280;13479;49.044;8.716;2023-09-19T11:58:54;98905.56;;;25.51;38.31
25610;BME280;13479;49.044;8.716;2023-09-19T12:01:33;98918.25;;;25.38;38.94
25610;BME280;13479;49.044;8.716;2023-09-19T12:04:02;98896.75;;;25.37;38.85
25610;BME280;13479;49.044;8.716;2023-09-19T12:06:30;98901.66;;;25.16;38.94
25610;BME280;13479;49.044;8.716;2023-09-19T12:11:41;98906.75;;;24.94;39.04
25610;BME280;13479;49.044;8.716;2023-09-19T12:14:09;98888.34;;;24.96;39.57
25610;BME280;13479;49.044;8.716;2023-09-19T12:16:34;98882.03;;;24.83;40.35
25610;BME280;13479;49.044;8.716;2023-09-19T12:19:18;98882.66;;;24.86;39.58
25610;BME280;13479;49.044;8.716;2023-09-19T12:21:54;98870.16;;;24.96;39.50
25610;BME280;13479;49.044;8.716;2023-09-19T12:24:19;98872.94;;;25.08;38.67
25610;BME280;13479;49.044;8.716;2023-09-19T12:26:46;98891.66;;;24.98;38.62
25610;BME280;13479;49.044;8.716;2023-09-19T12:29:19;98885.06;;;25.06;38.77
25610;BME280;13479;49.044;8.716;2023-09-19T12:31:56;98892.56;;;25.10;38.57
25610;BME280;13479;49.044;8.716;2023-09-19T12:34:27;98865.59;;;25.09;39.25
25610;BME280;13479;49.044;8.716;2023-09-19T12:37:11;98859.13;;;25.10;38.96
25610;BME280;13479;49.044;8.716;2023-09-19T12:39:41;98859.13;;;25.10;38.78
25610;BME280;13479;49.044;8.716;2023-09-19T12:42:09;98864.44;;;25.05;38.88
25610;BME280;13479;49.044;8.716;2023-09-19T12:44:40;98868.97;;;24.92;38.31
25610;BME280;13479;49.044;8.716;2023-09-19T12:47:15;98882.25;;;24.63;38.83
25610;BME280;13479;49.044;8.716;2023-09-19T12:50:13;98861.91;;;24.73;39.14
25610;BME280;13479;49.044;8.716;2023-09-19T12:52:48;98851.63;;;24.93;39.12
25610;BME280;13479;49.044;8.716;2023-09-19T12:55:24;98848.59;;;25.02;39.22
25610;BME280;13479;49.044;8.716;2023-09-19T12:58:12;98853.25;;;25.25;39.15
25610;BME280;13479;49.044;8.716;2023-09-19T13:00:42;98861.38;;;25.13;39.11
25610;BME280;13479;49.044;8.716;2023-09-19T13:03:25;98858.06;;;25.11;38.98
25610;BME280;13479;49.044;8.716;2023-09-19T13:05:55;98852.81;;;24.97;39.13
25610;BME280;13479;49.044;8.716;2023-09-19T13:08:23;98858.94;;;24.93;38.98
25610;BME280;13479;49.044;8.716;2023-09-19T13:13:35;98863.84;;;25.14;39.08
25610;BME280;13479;49.044;8.716;2023-09-19T13:16:01;98863.69;;;24.97;38.79
25610;BME280;13479;49.044;8.716;2023-09-19T13:18:27;98860.41;;;25.07;38.66
25610;BME280;13479;49.044;8.716;2023-09-19T13:21:08;98852.72;;;25.04;38.60
25610;BME280;13479;49.044;8.716;2023-09-19T13:23:41;98860.56;;;25.24;39.04
25610;BME280;13479;49.044;8.716;2023-09-19T13:26:07;98831.41;;;25.32;38.82
25610;BME280;13479;49.044;8.716;2023-09-19T13:28:33;98856.88;;;25.49;37.95
25610;BME280;13479;49.044;8.716;2023-09-19T13:30:59;98860.38;;;25.38;38.88
25610;BME280;13479;49.044;8.716;2023-09-19T13:33:24;98836.38;;;25.35;39.10
25610;BME280;13479;49.044;8.716;2023-09-19T13:35:51;98834.41;;;25.42;39.17
25610;BME280;13479;49.044;8.716;2023-09-19T13:38:17;98833.34;;;25.43;39.05
25610;BME280;13479;49.044;8.716;2023-09-19T13:40:43;98854.41;;;25.59;37.70
25610;BME280;13479;49.044;8.716;2023-09-19T13:43:08;98879.56;;;25.55;37.67
25610;BME280;13479;49.044;8.716;2023-09-19T13:45:34;98875.56;;;25.57;37.61
25610;BME280;13479;49.044;8.716;2023-09-19T13:47:59;98883.59;;;25.22;37.92
25610;BME280;13479;49.044;8.716;2023-09-19T13:50:24;98873.41;;;25.17;38.05
25610;BME280;13479;49.044;8.716;2023-09-19T13:52:51;98876.91;;;25.06;38.25
25610;BME280;13479;49.044;8.716;2023-09-19T13:55:19;98870.22;;;25.08;38.24
25610;BME280;13479;49.044;8.716;2023-09-19T13:57:48;98860.88;;;25.04;38.89
25610;BME280;13479;49.044;8.716;2023-09-19T14:00:15;98855.31;;;24.99;38.35
25610;BME280;13479;49.044;8.716;2023-09-19T14:02:41;98847.97;;;24.88;38.46
25610;BME280;13479;49.044;8.716;2023-09-19T14:05:09;98832.28;;;25.02;38.67
25610;BME280;13479;49.044;8.716;2023-09-19T14:07:37;98825.81;;;25.14;38.39
25610;BME280;13479;49.044;8.716;2023-09-19T14:10:02;98830.09;;;25.10;38.43
25610;BME280;13479;49.044;8.716;2023-09-19T14:12:29;98835.13;;;25.07;38.33
25610;BME280;13479;49.044;8.716;2023-09-19T14:14:54;98843.06;;;25.08;38.35
25610;BME280;13479;49.044;8.716;2023-09-19T14:17:21;98847.66;;;25.08;38.45
25610;BME280;13479;49.044;8.716;2023-09-19T14:19:46;98834.81;;;25.27;38.60
25610;BME280;13479;49.044;8.716;2023-09-19T14:22:12;98850.09;;;25.40;37.91
25610;BME280;13479;49.044;8.716;2023-09-19T14:24:39;98858.69;;;25.25;38.08
25610;BME280;13479;49.044;8.716;2023-09-19T14:27:06;98860.91;;;25.16;38.11
25610;BME280;13479;49.044;8.716;2023-09-19T14:29:34;98850.53;;;25.25;38.02
25610;BME280;13479;49.044;8.716;2023-09-19T14:31:59;98850.97;;;25.40;38.56
25610;BME280;13479;49.044;8.716;2023-09-19T14:34:24;98840.69;;;25.54;37.98
25610;BME280;13479;49.044;8.716;2023-09-19T14:36:49;98873.19;;;25.61;36.97
25610;BME280;13479;49.044;8.716;2023-09-19T14:39:15;98875.41;;;25.52;37.04
25610;BME280;13479;49.044;8.716;2023-09-19T14:41:40;98874.97;;;25.55;37.11
25610;BME280;13479;49.044;8.716;2023-09-19T14:44:05;98867.00;;;25.42;37.45
25610;BME280;13479;49.044;8.716;2023-09-19T14:46:30;98875.16;;;25.42;37.18
25610;BME280;13479;49.044;8.716;2023-09-19T14:48:56;98856.59;;;25.39;37.26
25610;BME280;13479;49.044;8.716;2023-09-19T14:51:25;98862.06;;;25.51;37.17
25610;BME280;13479;49.044;8.716;2023-09-19T14:53:50;98851.19;;;25.63;37.68
25610;BME280;13479;49.044;8.716;2023-09-19T14:56:15;98870.13;;;25.69;36.70
25610;BME280;13479;49.044;8.716;2023-09-19T14:58:43;98867.66;;;25.68;36.79
25610;BME280;13479;49.044;8.716;2023-09-19T15:01:10;98860.56;;;25.67;36.75
25610;BME280;13479;49.044;8.716;2023-09-19T15:03:36;98858.28;;;25.52;37.14
25610;BME280;13479;49.044;8.716;2023-09-19T15:06:08;98850.09;;;25.40;37.21
25610;BME280;13479;49.044;8.716;2023-09-19T15:08:37;98837.91;;;25.31;37.83
25610;BME280;13479;49.044;8.716;2023-09-19T15:11:06;98834.13;;;25.32;37.76
25610;BME280;13479;49.044;8.716;2023-09-19T15:13:32;98849.47;;;25.26;37.18
25610;BME280;13479;49.044;8.716;2023-09-19T15:16:01;98827.84;;;25.19;38.05
25610;BME280;13479;49.044;8.716;2023-09-19T15:18:30;98822.16;;;25.09;38.08
25610;BME280;13479;49.044;8.716;2023-09-19T15:20:56;98819.06;;;25.05;37.85
25610;BME280;13479;49.044;8.716;2023-09-19T15:23:22;98841.50;;;25.01;37.36
25610;BME280;13479;49.044;8.716;2023-09-19T15:25:48;98817.88;;;25.01;37.83
25610;BME280;13479;49.044;8.716;2023-09-19T15:28:14;98812.78;;;24.93;38.78
25610;BME280;13479;49.044;8.716;2023-09-19T15:30:39;98799.91;;;24.88;38.41
25610;BME280;13479;49.044;8.716;2023-09-19T15:33:04;98792.81;;;24.87;38.42
25610;BME280;13479;49.044;8.716;2023-09-19T15:35:30;98783.34;;;24.78;38.98
25610;BME280;13479;49.044;8.716;2023-09-19T15:37:55;98778.38;;;24.75;38.99
25610;BME280;13479;49.044;8.716;2023-09-19T15:40:21;98777.31;;;24.76;38.85
25610;BME280;13479;49.044;8.716;2023-09-19T15:42:49;98770.13;;;24.51;40.00
25610;BME280;13479;49.044;8.716;2023-09-19T15:45:14;98761.25;;;24.44;41.33
25610;BME280;13479;49.044;8.716;2023-09-19T15:47:40;98757.03;;;24.48;40.38
25610;BME280;13479;49.044;8.716;2023-09-19T15:50:07;98749.34;;;24.45;41.24
25610;BME280;13479;49.044;8.716;2023-09-19T15:52:34;98749.50;;;24.31;41.10
25610;BME280;13479;49.044;8.716;2023-09-19T15:55:02;98750.13;;;24.33;40.54
25610;BME280;13479;49.044;8.716;2023-09-19T15:57:28;98737.47;;;24.27;41.51
25610;BME280;13479;49.044;8.716;2023-09-19T15:59:53;98747.25;;;24.28;41.29
25610;BME280;13479;49.044;8.716;2023-09-19T16:02:19;98748.63;;;24.19;41.05
25610;BME280;13479;49.044;8.716;2023-09-19T16:04:44;98738.56;;;24.08;42.56
25610;BME280;13479;49.044;8.716;2023-09-19T16:07:10;98742.63;;;23.98;42.44
25610;BME280;13479;49.044;8.716;2023-09-19T16:09:35;98735.47;;;24.04;42.04
25610;BME280;13479;49.044;8.716;2023-09-19T16:12:00;98737.66;;;23.95;42.24
25610;BME280;13479;49.044;8.716;2023-09-19T16:14:25;98738.69;;;23.94;42.30
25610;BME280;13479;49.044;8.716;2023-09-19T16:16:54;98738.38;;;23.84;43.07
25610;BME280;13479;49.044;8.716;2023-09-19T16:19:19;98734.69;;;23.78;43.31
25610;BME280;13479;49.044;8.716;2023-09-19T16:21:44;98733.88;;;23.78;42.75
25610;BME280;13479;49.044;8.716;2023-09-19T16:24:10;98735.44;;;23.67;43.67
25610;BME280;13479;49.044;8.716;2023-09-19T16:26:36;98730.09;;;23.60;43.92
25610;BME280;13479;49.044;8.716;2023-09-19T16:29:02;98728.00;;;23.62;43.90
25610;BME280;13479;49.044;8.716;2023-09-19T16:31:28;98723.47;;;23.56;43.77
25610;BME280;13479;49.044;8.716;2023-09-19T16:33:54;98727.97;;;23.43;44.64
25610;BME280;13479;49.044;8.716;2023-09-19T16:36:24;98729.91;;;23.36;45.04
25610;BME280;13479;49.044;8.716;2023-09-19T16:38:50;98731.97;;;23.41;44.39
25610;BME280;13479;49.044;8.716;2023-09-19T16:41:17;98727.19;;;23.36;45.13
25610;BME280;13479;49.044;8.716;2023-09-19T16:43:44;98725.78;;;23.34;44.79
25610;BME280;13479;49.044;8.716;2023-09-19T16:46:10;98717.97;;;23.44;44.79
25610;BME280;13479;49.044;8.716;2023-09-19T16:48:39;98724.81;;;23.47;45.16
25610;BME280;13479;49.044;8.716;2023-09-19T16:51:07;98717.59;;;23.59;44.27
25610;BME280;13479;49.044;8.716;2023-09-19T16:53:33;98724.09;;;23.77;44.19
25610;BME280;13479;49.044;8.716;2023-09-19T16:56:05;98729.50;;;23.77;44.13
25610;BME280;13479;49.044;8.716;2023-09-19T16:58:38;98734.00;;;23.64;44.07
25610;BME280;13479;49.044;8.716;2023-09-19T17:01:06;98733.84;;;23.59;44.25
25610;BME280;13479;49.044;8.716;2023-09-19T17:03:34;98727.81;;;23.38;45.06
25610;BME280;13479;49.044;8.716;2023-09-19T17:06:00;98715.91;;;23.21;45.25
25610;BME280;13479;49.044;8.716;2023-09-19T17:08:26;98722.44;;;23.06;45.48
25610;BME280;13479;49.044;8.716;2023-09-19T17:11:08;98722.78;;;22.91;45.83
25610;BME280;13479;49.044;8.716;2023-09-19T17:13:35;98721.88;;;22.72;46.49
25610;BME280;13479;49.044;8.716;2023-09-19T17:16:05;98720.53;;;22.56;47.35
25610;BME280;13479;49.044;8.716;2023-09-19T17:18:33;98722.06;;;22.45;47.32
25610;BME280;13479;49.044;8.716;2023-09-19T17:20:59;98722.72;;;22.34;47.45
25610;BME280;13479;49.044;8.716;2023-09-19T17:23:29;98715.06;;;22.24;47.67
25610;BME280;13479;49.044;8.716;2023-09-19T17:26:09;98714.09;;;22.12;47.94
25610;BME280;13479;49.044;8.716;2023-09-19T17:28:40;98721.59;;;22.03;48.68
25610;BME280;13479;49.044;8.716;2023-09-19T17:31:24;98725.41;;;21.88;48.90
25610;BME280;13479;49.044;8.716;2023-09-19T17:33:53;98721.72;;;21.76;49.44
25610;BME280;13479;49.044;8.716;2023-09-19T17:36:20;98722.16;;;21.59;50.03
25610;BME280;13479;49.044;8.716;2023-09-19T17:38:47;98716.56;;;21.48;50.62
25610;BME280;13479;49.044;8.716;2023-09-19T17:41:13;98721.13;;;21.34;50.78